Time;durP1;ratioP1;P1;durP2;ratioP2;P2;SDS_P1;SDS_P2;PMS_P1;PMS_P2;Temp;Humidity;BMP_temperature;BMP_pressure;BME280_temperature;BME280_humidity;BME280_pressure;Samples;Min_cycle;Max_cycle;Signal;HPM_P1;HPM_P2
2024/01/25 00:00:22;;;;;;;10.50;2.00;;;;;;;7.14;83.10;99069.48;103065;1288;61052;-32
2024/01/25 00:02:48;;;;;;;9.70;2.10;;;;;;;7.29;83.20;99073.52;103067;1293;60562;-32
2024/01/25 00:05:14;;;;;;;11.70;2.40;;;;;;;7.25;83.74;99066.30;102977;1293;60491;-32
2024/01/25 00:07:52;;;;;;;8.10;0.90;;;;;;;7.07;84.35;99083.75;103146;1294;67240;-31
2024/01/25 00:10:18;;;;;;;13.30;2.00;;;;;;;6.97;85.21;99070.52;103058;1288;70883;-29
2024/01/25 00:12:43;;;;;;;10.00;1.70;;;;;;;7.01;85.50;99086.64;103038;1291;60497;-31
2024/01/25 00:15:09;;;;;;;10.90;1.80;;;;;;;6.72;87.35;99102.20;103039;1292;60587;-29
2024/01/25 00:17:36;;;;;;;8.90;1.40;;;;;;;6.70;88.05;99092.34;103071;1290;60569;-31
2024/01/25 00:20:02;;;;;;;13.30;1.50;;;;;;;6.41;90.54;99124.20;103215;1291;60581;-30
2024/01/25 00:22:28;;;;;;;6.30;1.50;;;;;;;6.18;93.97;99134.52;102490;1304;1002694;-31
2024/01/25 00:24:54;;;;;;;5.80;2.00;;;;;;;5.93;96.59;99134.75;103083;1294;60577;-30
2024/01/25 00:27:19;;;;;;;6.50;1.90;;;;;;;5.63;98.57;99123.02;102990;1310;60659;-30
2024/01/25 00:29:45;;;;;;;8.90;1.90;;;;;;;5.80;98.65;99138.34;103205;1300;60579;-35
2024/01/25 00:32:10;;;;;;;15.60;2.20;;;;;;;5.78;98.70;99134.55;103157;1294;60595;-33
2024/01/25 00:34:36;;;;;;;11.40;2.60;;;;;;;5.97;96.66;99127.56;103068;1290;68391;-34
2024/01/25 00:37:02;;;;;;;;;;;;;;;6.16;94.91;99127.29;103157;1293;60599;-33
2024/01/25 00:39:28;;;;;;;6.60;1.10;;;;;;;6.29;93.86;99123.04;103246;1292;60606;-32
2024/01/25 00:41:55;;;;;;;;;;;;;;;6.42;92.70;99125.79;103077;1292;60492;-32
2024/01/25 00:44:21;;;;;;;9.40;2.00;;;;;;;6.26;92.64;99107.80;103086;1290;60800;-31
2024/01/25 00:46:47;;;;;;;10.10;2.50;;;;;;;6.34;91.96;99110.73;103171;1292;60765;-30
2024/01/25 00:49:14;;;;;;;7.40;1.80;;;;;;;6.28;92.02;99120.15;103078;1304;62133;-31
2024/01/25 00:51:41;;;;;;;11.00;1.60;;;;;;;6.55;91.14;99126.88;102950;1293;61693;-31
2024/01/25 00:54:07;;;;;;;14.20;2.20;;;;;;;6.55;90.42;99120.48;103287;1294;61834;-33
2024/01/25 00:56:33;;;;;;;10.20;1.90;;;;;;;6.57;90.11;99107.05;103234;1294;61706;-32
2024/01/25 00:58:58;;;;;;;12.60;2.10;;;;;;;6.56;90.25;99115.73;103203;1294;61713;-32
2024/01/25 01:01:24;;;;;;;10.20;1.90;;;;;;;6.67;89.56;99111.09;103127;1292;61725;-32
2024/01/25 01:03:52;;;;;;;8.60;1.80;;;;;;;6.69;89.44;99117.78;103114;1300;61709;-31
2024/01/25 01:06:20;;;;;;;9.50;1.50;;;;;;;6.52;90.36;99113.83;103189;1294;61600;-31
2024/01/25 01:08:46;;;;;;;9.60;2.60;;;;;;;6.61;89.76;99120.43;103101;1292;61622;-31
2024/01/25 01:11:12;;;;;;;9.50;2.20;;;;;;;6.86;88.05;99111.98;103124;1294;61713;-32
2024/01/25 01:13:38;;;;;;;16.90;2.30;;;;;;;6.75;88.04;99114.77;103243;1293;61737;-33
2024/01/25 01:16:04;;;;;;;12.10;1.80;;;;;;;6.69;88.85;99115.48;103218;1294;61601;-32
2024/01/25 01:18:30;;;;;;;11.40;2.70;;;;;;;6.67;88.90;99113.33;103198;1294;60620;-31
2024/01/25 01:20:56;;;;;;;9.00;2.00;;;;;;;6.82;87.84;99104.89;102956;1310;61045;-31
2024/01/25 01:23:22;;;;;;;13.20;2.80;;;;;;;6.83;88.26;99113.50;103094;1294;60566;-32
2024/01/25 01:25:47;;;;;;;10.20;2.60;;;;;;;6.74;88.03;99099.35;103194;1293;60637;-32
2024/01/25 01:28:13;;;;;;;10.30;2.90;;;;;;;6.69;88.07;99106.98;103289;1300;60593;-32
2024/01/25 01:30:41;;;;;;;13.00;3.20;;;;;;;6.73;87.84;99108.17;103177;1294;60598;-31
2024/01/25 01:33:10;;;;;;;14.60;3.00;;;;;;;6.64;87.47;99098.17;103189;1293;60588;-31
2024/01/25 01:35:35;;;;;;;9.00;2.20;;;;;;;6.71;87.49;99090.60;103128;1293;70426;-31
2024/01/25 01:38:01;;;;;;;11.80;2.50;;;;;;;6.47;88.66;99125.80;103174;1294;60536;-31
2024/01/25 01:40:27;;;;;;;10.60;2.60;;;;;;;6.43;90.83;99139.56;103256;1301;60621;-30
2024/01/25 01:42:59;;;;;;;14.00;2.70;;;;;;;6.16;93.63;99147.45;103095;1293;60792;-32
2024/01/25 01:45:25;;;;;;;8.90;1.60;;;;;;;5.80;96.77;99154.76;103181;1288;73487;-30
2024/01/25 01:47:50;;;;;;;11.20;1.80;;;;;;;5.49;99.26;99160.61;103262;1294;61145;-31
2024/01/25 01:50:16;;;;;;;7.80;1.80;;;;;;;5.39;100.00;99172.25;103054;1310;60659;-32
2024/01/25 01:52:42;;;;;;;7.50;2.20;;;;;;;5.23;100.00;99165.12;103193;1294;60617;-34
2024/01/25 02:34:38;;;;;;;13.40;1.70;;;;;;;4.90;100.00;99130.70;103499;1284;614368;-30
2024/01/25 02:37:05;;;;;;;14.10;3.30;;;;;;;5.37;100.00;99119.32;103538;1289;167531;-30
2024/01/25 02:39:31;;;;;;;9.60;1.90;;;;;;;5.60;98.78;99108.64;103717;1285;59298;-31
2024/01/25 02:41:56;;;;;;;17.50;3.60;;;;;;;5.72;97.11;99106.56;103920;1283;59463;-30
2024/01/25 02:44:22;;;;;;;8.70;1.90;;;;;;;5.95;94.90;99109.75;103783;1282;59362;-31
2024/01/25 02:46:47;;;;;;;23.90;3.30;;;;;;;5.98;93.34;99103.64;103479;1283;59400;-31
2024/01/25 02:49:13;;;;;;;8.60;2.20;;;;;;;6.18;90.80;99087.75;103746;1283;59301;-31
2024/01/25 02:51:39;;;;;;;;;;;;;;;6.16;89.86;99102.55;103866;1285;59374;-30
2024/01/25 02:54:04;;;;;;;7.70;2.20;;;;;;;6.18;88.85;99110.52;103754;1283;59189;-33
2024/01/25 02:56:34;;;;;;;;;;;;;;;6.26;88.48;99126.60;103974;1282;59300;-32
2024/01/25 02:59:01;;;;;;;20.30;2.20;;;;;;;6.30;87.36;99124.41;103730;1283;68447;-32
2024/01/25 03:01:27;;;;;;;13.90;3.20;;;;;;;6.13;87.45;99119.03;103689;1285;70876;-31
2024/01/25 03:03:53;;;;;;;11.80;2.10;;;;;;;6.26;86.85;99124.84;103903;1283;59714;-30
2024/01/25 03:06:19;;;;;;;;;;;;;;;6.21;86.55;99121.83;103727;1285;59766;-31
2024/01/25 03:08:45;;;;;;;11.40;3.00;;;;;;;6.27;86.14;99127.19;103752;1283;59755;-30
2024/01/25 03:11:10;;;;;;;7.60;1.80;;;;;;;6.39;84.58;99125.28;103620;1286;59855;-32
2024/01/25 03:13:36;;;;;;;8.60;2.60;;;;;;;6.46;83.95;99123.11;103807;1283;59730;-31
2024/01/25 03:16:02;;;;;;;10.70;2.80;;;;;;;6.39;84.18;99116.05;103624;1285;59807;-31
2024/01/25 03:18:28;;;;;;;;;;;;;;;6.44;83.75;99119.75;103808;1283;59768;-32
2024/01/25 03:20:53;;;;;;;13.50;3.30;;;;;;;6.38;83.69;99108.89;103805;1283;59748;-31
2024/01/25 03:23:19;;;;;;;10.70;2.00;;;;;;;6.47;83.21;99119.92;103787;1283;73781;-33
2024/01/25 03:25:44;;;;;;;15.30;3.60;;;;;;;6.53;82.97;99099.88;103779;1283;59802;-30
2024/01/25 03:28:13;;;;;;;15.30;1.70;;;;;;;6.61;81.97;99110.48;103746;1285;59797;-29
2024/01/25 03:30:38;;;;;;;13.60;3.60;;;;;;;6.38;82.71;99107.89;103714;1285;59570;-29
2024/01/25 03:33:04;;;;;;;12.90;1.60;;;;;;;6.46;82.33;99102.09;103660;1285;59815;-29
2024/01/25 03:35:30;;;;;;;17.60;2.90;;;;;;;6.46;82.73;99112.80;103703;1285;61003;-30
2024/01/25 03:37:55;;;;;;;9.90;2.10;;;;;;;6.55;82.23;99106.77;103599;1287;59691;-31
2024/01/25 03:40:21;;;;;;;9.60;2.40;;;;;;;6.47;82.58;99099.59;103879;1285;59713;-30
2024/01/25 03:42:47;;;;;;;14.40;2.30;;;;;;;6.48;82.23;99097.91;103708;1285;59567;-31
2024/01/25 03:45:12;;;;;;;10.50;2.20;;;;;;;6.52;81.59;99106.73;103716;1283;59758;-31
2024/01/25 03:47:38;;;;;;;15.90;2.70;;;;;;;6.37;82.83;99103.45;103741;1283;59595;-30
2024/01/25 03:50:04;;;;;;;8.00;1.60;;;;;;;6.37;84.05;99114.73;103729;1283;59859;-33
2024/01/25 03:52:30;;;;;;;;;;;;;;;6.41;83.79;99106.93;103719;1283;59761;-33
2024/01/25 03:54:56;;;;;;;8.20;2.10;;;;;;;6.41;83.43;99117.40;103688;1285;59710;-29
2024/01/25 03:57:22;;;;;;;15.10;2.20;;;;;;;6.27;85.55;99130.96;103714;1285;59761;-31
2024/01/25 03:59:48;;;;;;;14.20;2.70;;;;;;;5.93;87.86;99126.45;103686;1285;59761;-30
2024/01/25 04:02:14;;;;;;;9.50;1.40;;;;;;;5.99;87.95;99119.73;103747;1283;59847;-30
2024/01/25 04:04:39;;;;;;;12.20;2.00;;;;;;;5.83;88.59;99116.58;103813;1282;59765;-29
2024/01/25 04:07:05;;;;;;;8.40;1.80;;;;;;;5.87;88.44;99125.37;103660;1286;59781;-30
2024/01/25 04:09:30;;;;;;;10.60;2.70;;;;;;;5.88;88.26;99125.23;103592;1283;59752;-29
2024/01/25 04:11:56;;;;;;;9.80;1.80;;;;;;;6.07;88.83;99124.73;103671;1282;59662;-33
2024/01/25 04:14:22;;;;;;;12.40;2.70;;;;;;;5.84;89.98;99115.01;103652;1282;59717;-34
2024/01/25 04:16:47;;;;;;;17.10;5.10;;;;;;;5.78;90.41;99117.34;103683;1287;59729;-32
2024/01/25 04:19:13;;;;;;;14.50;3.30;;;;;;;5.64;91.07;99122.91;103745;1286;59742;-31
2024/01/25 04:21:39;;;;;;;13.80;2.40;;;;;;;5.51;92.26;99118.77;103828;1285;59687;-30
2024/01/25 04:24:05;;;;;;;15.80;3.10;;;;;;;5.55;93.28;99113.58;103598;1288;59698;-31
2024/01/25 04:26:31;;;;;;;12.90;2.10;;;;;;;5.43;94.30;99107.19;103731;1285;60388;-31
2024/01/25 04:28:56;;;;;;;12.80;1.70;;;;;;;5.41;94.64;99111.50;103752;1283;59774;-31
2024/01/25 04:31:22;;;;;;;13.30;3.60;;;;;;;5.38;94.69;99118.62;103651;1283;68877;-32
2024/01/25 04:33:48;;;;;;;19.30;2.90;;;;;;;5.30;96.35;99109.98;103651;1283;73016;-30
2024/01/25 04:36:14;;;;;;;16.90;3.70;;;;;;;5.17;97.55;99094.77;103771;1286;59755;-31
2024/01/25 04:38:39;;;;;;;;;;;;;;;5.21;97.22;99098.98;103594;1288;59752;-31
2024/01/25 04:41:05;;;;;;;11.30;2.60;;;;;;;5.29;96.07;99099.67;103676;1285;59762;-31
2024/01/25 04:43:37;;;;;;;12.80;2.60;;;;;;;5.21;96.93;99099.98;103649;1285;59745;-32
2024/01/25 04:46:03;;;;;;;11.10;1.80;;;;;;;5.26;97.11;99099.24;103773;1285;68584;-34
2024/01/25 04:48:29;;;;;;;12.40;2.50;;;;;;;5.28;96.93;99089.29;103732;1285;59605;-31
2024/01/25 04:50:57;;;;;;;13.70;1.60;;;;;;;5.27;97.55;99092.09;103773;1282;59538;-31
2024/01/25 04:53:23;;;;;;;10.30;1.90;;;;;;;5.21;98.15;99092.52;103839;1283;59644;-32
2024/01/25 04:55:48;;;;;;;17.10;2.30;;;;;;;5.12;98.40;99086.62;103781;1283;59372;-30
2024/01/25 04:58:14;;;;;;;8.90;1.30;;;;;;;5.10;98.40;99095.58;103751;1285;59722;-31
2024/01/25 05:00:39;;;;;;;13.10;2.20;;;;;;;5.14;98.62;99094.23;103655;1283;59790;-31
2024/01/25 05:03:05;;;;;;;7.20;1.60;;;;;;;5.12;99.10;99088.42;103671;1284;59783;-32
2024/01/25 05:05:30;;;;;;;10.30;2.20;;;;;;;5.19;98.53;99083.02;103733;1283;59723;-32
2024/01/25 05:07:56;;;;;;;11.80;2.80;;;;;;;5.14;98.24;99079.01;103744;1283;59624;-30
2024/01/25 05:10:23;;;;;;;13.00;1.70;;;;;;;5.21;98.03;99082.24;103824;1285;59832;-31
2024/01/25 05:12:48;;;;;;;14.00;3.00;;;;;;;5.26;97.25;99080.48;103828;1285;60279;-35
2024/01/25 05:15:14;;;;;;;11.70;2.00;;;;;;;5.35;96.20;99085.14;103563;1286;59847;-33
2024/01/25 05:17:40;;;;;;;;;;;;;;;5.33;95.74;99087.11;103658;1285;59727;-31
2024/01/25 05:20:06;;;;;;;9.00;1.20;;;;;;;5.54;94.22;99083.24;103880;1286;59755;-30
2024/01/25 05:22:32;;;;;;;11.10;2.70;;;;;;;5.67;92.79;99081.23;103777;1281;59694;-32
2024/01/25 05:24:57;;;;;;;11.90;2.40;;;;;;;5.80;92.22;99087.54;103736;1285;59706;-34
2024/01/25 05:27:23;;;;;;;13.00;1.60;;;;;;;5.66;92.93;99095.23;103680;1287;59806;-31
2024/01/25 05:29:49;;;;;;;12.00;2.40;;;;;;;5.65;93.95;99093.17;103743;1286;59729;-29
2024/01/25 05:32:14;;;;;;;9.90;1.30;;;;;;;5.32;95.57;99101.63;103752;1285;60327;-33
2024/01/25 05:34:40;;;;;;;7.00;1.20;;;;;;;5.22;97.13;99103.64;103715;1285;59768;-30
2024/01/25 05:37:06;;;;;;;11.10;1.60;;;;;;;5.16;98.08;99109.48;103676;1285;59821;-31
2024/01/25 05:39:32;;;;;;;9.70;2.00;;;;;;;5.36;96.97;99096.92;103657;1288;59661;-31
2024/01/25 05:41:58;;;;;;;10.60;1.40;;;;;;;5.19;98.15;99103.09;103676;1287;59614;-31
2024/01/25 05:44:24;;;;;;;15.10;2.20;;;;;;;5.17;98.57;99104.05;103672;1286;59722;-33
2024/01/25 05:46:50;;;;;;;6.60;1.80;;;;;;;5.28;98.76;99106.02;102980;1286;1015974;-29
2024/01/25 05:49:16;;;;;;;10.80;1.20;;;;;;;5.30;99.32;99105.08;103718;1283;60971;-31
2024/01/25 05:51:42;;;;;;;9.10;1.50;;;;;;;5.27;99.60;99111.29;103681;1290;60119;-31
2024/01/25 05:54:07;;;;;;;14.30;2.10;;;;;;;5.27;99.72;99109.46;103678;1286;59761;-30
2024/01/25 05:56:33;;;;;;;13.00;1.80;;;;;;;5.36;99.05;99126.82;103692;1285;61247;-31
2024/01/25 05:58:59;;;;;;;17.00;2.50;;;;;;;5.24;99.77;99119.79;103795;1286;60123;-32
2024/01/25 06:01:24;;;;;;;17.30;1.80;;;;;;;5.18;100.00;99124.72;103655;1282;59784;-29
2024/01/25 06:03:50;;;;;;;9.90;1.60;;;;;;;5.21;100.00;99122.58;103714;1283;59749;-31
2024/01/25 06:06:16;;;;;;;10.80;2.00;;;;;;;5.05;100.00;99125.55;103635;1286;59774;-31
2024/01/25 06:08:41;;;;;;;6.10;1.10;;;;;;;5.01;100.00;99130.79;103770;1284;60168;-32
2024/01/25 06:11:09;;;;;;;12.50;3.50;;;;;;;5.17;100.00;99125.98;101610;1286;1003107;-30
2024/01/25 06:13:35;;;;;;;11.50;2.40;;;;;;;5.50;98.91;99126.05;103846;1283;59663;-32
2024/01/25 06:16:00;;;;;;;16.30;2.10;;;;;;;5.44;97.93;99125.84;103080;1283;1002947;-32
2024/01/25 06:18:26;;;;;;;9.00;1.40;;;;;;;5.56;97.20;99137.15;103669;1283;59679;-31
2024/01/25 06:20:52;;;;;;;12.50;1.60;;;;;;;5.45;97.30;99128.83;103669;1286;59771;-30
2024/01/25 06:23:18;;;;;;;10.70;1.90;;;;;;;5.56;96.30;99131.27;103774;1286;59774;-31
2024/01/25 06:25:43;;;;;;;16.80;3.10;;;;;;;5.53;96.34;99128.64;103587;1288;59777;-30
2024/01/25 06:28:09;;;;;;;9.10;1.60;;;;;;;5.70;95.37;99126.55;103804;1286;59711;-32
2024/01/25 06:30:34;;;;;;;11.50;1.90;;;;;;;5.65;95.12;99141.29;103666;1283;67083;-32
2024/01/25 06:33:00;;;;;;;12.20;2.50;;;;;;;5.76;94.97;99138.80;103696;1286;59859;-32
2024/01/25 06:35:25;;;;;;;11.80;1.90;;;;;;;5.94;93.76;99130.91;103709;1284;59790;-33
2024/01/25 06:37:51;;;;;;;10.50;1.80;;;;;;;5.93;92.98;99131.95;103745;1282;62037;-34
2024/01/25 06:40:17;;;;;;;7.40;1.20;;;;;;;5.87;93.26;99146.29;103763;1285;60504;-31
2024/01/25 06:42:44;;;;;;;11.90;1.60;;;;;;;5.86;93.46;99144.08;103731;1284;61017;-31
2024/01/25 06:45:10;;;;;;;7.50;1.20;;;;;;;5.92;93.70;99141.64;103709;1283;60482;-30
2024/01/25 06:47:36;;;;;;;15.40;2.60;;;;;;;6.00;92.94;99161.00;103751;1286;60576;-31
2024/01/25 06:50:02;;;;;;;14.10;2.60;;;;;;;5.85;93.76;99167.35;103712;1283;60514;-31
2024/01/25 06:52:28;;;;;;;8.90;2.10;;;;;;;5.80;94.75;99170.05;103698;1285;60559;-32
2024/01/25 06:54:53;;;;;;;14.50;3.20;;;;;;;5.85;94.89;99167.68;103706;1286;60561;-30
2024/01/25 06:57:19;;;;;;;7.10;1.50;;;;;;;5.86;95.37;99176.14;103700;1284;67844;-31
2024/01/25 06:59:45;;;;;;;;;;;;;;;5.71;96.36;99181.84;103747;1286;60581;-31
2024/01/25 07:02:11;;;;;;;8.50;2.00;;;;;;;5.60;97.28;99178.44;103740;1286;60571;-31
2024/01/25 07:04:40;;;;;;;11.30;2.20;;;;;;;5.49;98.74;99184.25;103711;1283;60447;-32
2024/01/25 07:07:06;;;;;;;13.70;2.80;;;;;;;5.54;99.46;99192.80;103725;1289;60373;-32
2024/01/25 07:09:31;;;;;;;12.40;2.90;;;;;;;5.56;99.57;99194.66;103750;1286;60590;-33
2024/01/25 07:11:57;;;;;;;11.90;1.50;;;;;;;5.46;100.00;99191.88;103852;1283;60569;-34
2024/01/25 07:14:22;;;;;;;12.50;1.80;;;;;;;5.30;100.00;99195.09;103693;1286;60531;-31
2024/01/25 07:16:48;;;;;;;7.40;1.50;;;;;;;5.30;100.00;99195.65;103590;1288;60490;-32
2024/01/25 07:19:14;;;;;;;10.50;2.00;;;;;;;5.18;100.00;99195.10;103719;1286;60565;-32
2024/01/25 07:21:40;;;;;;;15.50;3.00;;;;;;;5.23;100.00;99201.09;103743;1283;60500;-31
2024/01/25 07:24:06;;;;;;;13.30;3.40;;;;;;;5.31;100.00;99209.88;103583;1282;68373;-30
2024/01/25 07:26:32;;;;;;;13.40;3.30;;;;;;;5.38;100.00;99216.02;103755;1285;60491;-30
2024/01/25 07:29:00;;;;;;;12.80;2.10;;;;;;;5.52;100.00;99217.84;103804;1282;60561;-32
2024/01/25 07:31:26;;;;;;;12.80;3.00;;;;;;;5.33;100.00;99221.52;103769;1285;60440;-32
2024/01/25 07:33:52;;;;;;;6.80;2.60;;;;;;;5.32;100.00;99223.23;103733;1286;60542;-31
2024/01/25 07:36:19;;;;;;;18.00;3.60;;;;;;;5.36;100.00;99228.87;103756;1281;60424;-30
2024/01/25 07:38:46;;;;;;;14.60;2.60;;;;;;;5.39;99.88;99224.20;103915;1285;60610;-32
2024/01/25 07:41:13;;;;;;;15.60;2.80;;;;;;;5.59;98.94;99225.94;103816;1285;72266;-32
2024/01/25 07:43:39;;;;;;;14.50;2.50;;;;;;;5.51;98.49;99231.33;103726;1286;60533;-33
2024/01/25 07:46:04;;;;;;;12.70;2.30;;;;;;;5.40;98.74;99245.63;103774;1283;60546;-32
2024/01/25 07:48:30;;;;;;;13.80;3.00;;;;;;;5.39;99.16;99259.07;103732;1286;60523;-31
2024/01/25 07:50:56;;;;;;;12.80;1.90;;;;;;;5.43;98.43;99254.40;103658;1283;60568;-32
2024/01/25 07:53:22;;;;;;;10.00;1.90;;;;;;;5.24;98.16;99255.83;103679;1285;60586;-32
2024/01/25 07:55:48;;;;;;;;;;;;;;;5.42;97.06;99259.23;103733;1285;60580;-34
2024/01/25 07:58:15;;;;;;;14.80;2.00;;;;;;;5.43;95.36;99252.59;103772;1286;60507;-32
2024/01/25 08:00:40;;;;;;;12.70;1.90;;;;;;;5.52;94.73;99256.77;102982;1283;1003157;-31
2024/01/25 08:03:06;;;;;;;12.20;2.90;;;;;;;5.42;94.85;99262.80;103776;1283;60554;-31
2024/01/25 08:05:31;;;;;;;9.20;1.80;;;;;;;5.61;93.70;99265.52;103857;1289;60546;-30
2024/01/25 08:07:57;;;;;;;17.60;3.10;;;;;;;5.76;92.43;99260.91;103708;1287;70329;-32
2024/01/25 08:10:23;;;;;;;11.70;2.00;;;;;;;5.77;92.00;99252.58;103834;1285;60581;-34
2024/01/25 08:12:48;;;;;;;11.50;2.30;;;;;;;5.97;90.59;99256.48;103152;1285;1002279;-34
2024/01/25 08:15:14;;;;;;;13.30;2.20;;;;;;;6.08;89.27;99251.14;103776;1285;60520;-29
2024/01/25 08:17:40;;;;;;;15.90;3.00;;;;;;;5.94;89.54;99254.59;103824;1285;60615;-30
2024/01/25 08:20:07;;;;;;;10.80;2.80;;;;;;;5.74;90.86;99249.35;96569;1282;2002579;-31
2024/01/25 08:22:33;;;;;;;15.40;2.30;;;;;;;5.84;91.87;99266.52;102880;1288;1003860;-32
2024/01/25 08:24:59;;;;;;;13.50;2.90;;;;;;;5.79;91.15;99256.62;103467;1287;60555;-32
2024/01/25 08:27:24;;;;;;;16.50;1.60;;;;;;;5.54;91.82;99249.25;103781;1284;62012;-32
2024/01/25 08:29:50;;;;;;;19.90;1.80;;;;;;;5.73;90.93;99246.25;103659;1282;60540;-31
2024/01/25 08:32:16;;;;;;;14.70;3.30;;;;;;;5.81;90.60;99256.23;103709;1283;60579;-32
2024/01/25 08:34:41;;;;;;;10.20;3.10;;;;;;;5.86;88.42;99237.40;103631;1284;61157;-30
2024/01/25 08:37:07;;;;;;;8.90;2.20;;;;;;;5.91;88.79;99245.86;103607;1285;60568;-31
2024/01/25 08:39:33;;;;;;;16.50;1.80;;;;;;;5.94;88.31;99242.13;103620;1288;60545;-31
2024/01/25 08:42:01;;;;;;;10.80;2.20;;;;;;;5.81;88.84;99223.19;103654;1285;73435;-32
2024/01/25 08:44:27;;;;;;;11.80;1.60;;;;;;;5.84;87.96;99228.54;103716;1283;68486;-30
2024/01/25 08:46:53;;;;;;;11.90;2.80;;;;;;;6.01;86.76;99216.59;103821;1282;60564;-32
2024/01/25 08:49:19;;;;;;;11.70;1.70;;;;;;;6.14;85.54;99228.13;103731;1284;60545;-32
2024/01/25 08:51:44;;;;;;;16.40;2.90;;;;;;;6.24;84.15;99219.07;103621;1283;60568;-30
2024/01/25 08:54:10;;;;;;;15.90;2.50;;;;;;;6.35;82.80;99225.73;103421;1283;60558;-31
2024/01/25 08:56:35;;;;;;;11.30;1.50;;;;;;;6.28;82.79;99232.90;103719;1285;60542;-30
2024/01/25 08:59:01;;;;;;;11.90;2.70;;;;;;;6.26;83.20;99240.54;103759;1285;60559;-30
2024/01/25 09:01:27;;;;;;;14.00;2.00;;;;;;;6.26;83.07;99246.31;103663;1283;60415;-32
2024/01/25 09:03:52;;;;;;;;;;;;;;;6.37;82.80;99239.20;103689;1283;60558;-32
2024/01/25 09:06:18;;;;;;;7.30;2.10;;;;;;;6.60;81.08;99234.75;103742;1282;60541;-33
2024/01/25 09:08:44;;;;;;;17.20;2.20;;;;;;;6.60;80.08;99246.55;103853;1283;60524;-31
2024/01/25 09:11:10;;;;;;;17.10;1.70;;;;;;;6.57;80.99;99237.39;103704;1283;60548;-33
2024/01/25 09:13:36;;;;;;;5.80;1.30;;;;;;;6.55;81.05;99237.24;103491;1289;60562;-32
2024/01/25 09:16:01;;;;;;;15.70;2.70;;;;;;;6.59;80.85;99249.98;103748;1285;60568;-31
2024/01/25 09:18:27;;;;;;;14.10;1.90;;;;;;;6.78;79.74;99244.62;103686;1285;60474;-30
2024/01/25 09:20:53;;;;;;;15.50;1.50;;;;;;;6.64;79.61;99239.80;103727;1283;60584;-31
2024/01/25 09:23:18;;;;;;;11.30;1.70;;;;;;;-47.19;47.03;59554.77;102256;1285;1004666;-33
2024/01/25 09:25:47;;;;;;;10.00;2.00;;;;;;;-128.00;-1.00;-1.00;100017;1282;1004968;-31
2024/01/25 09:28:12;;;;;;;13.20;1.60;;;;;;;-128.00;-1.00;-1.00;100239;1281;1013899;-31
2024/01/25 09:30:39;;;;;;;9.60;1.90;;;;;;;-128.00;-1.00;-1.00;100101;1283;1004855;-29
2024/01/25 09:33:06;;;;;;;8.90;1.40;;;;;;;-128.00;-1.00;-1.00;100147;1283;1004478;-30
2024/01/25 09:35:32;;;;;;;15.20;2.70;;;;;;;-128.00;-1.00;-1.00;100130;1281;1004609;-31
2024/01/25 09:37:57;;;;;;;;;;;;;;;-128.00;-1.00;-1.00;100071;1282;1004411;-30
2024/01/25 09:40:23;;;;;;;11.90;2.30;;;;;;;-128.00;-1.00;-1.00;100088;1283;1004961;-31
2024/01/25 09:42:49;;;;;;;10.40;2.10;;;;;;;-128.00;-1.00;-1.00;100180;1285;1004120;-32
2024/01/25 09:45:16;;;;;;;;;;;;;;;-128.00;-1.00;-1.00;100107;1283;1004724;-31
2024/01/25 09:47:42;;;;;;;14.70;2.00;;;;;;;-128.00;-1.00;-1.00;99981;1283;1004992;-33
2024/01/25 09:50:08;;;;;;;10.40;1.90;;;;;;;-128.00;-1.00;-1.00;100169;1282;1004639;-31
2024/01/25 09:52:34;;;;;;;;;;;;;;;-128.00;-1.00;-1.00;100015;1281;1004376;-33
2024/01/25 09:54:59;;;;;;;12.00;1.80;;;;;;;-128.00;-1.00;-1.00;100186;1283;1005072;-32
2024/01/25 09:57:27;;;;;;;;;;;;;;;-128.00;-1.00;-1.00;100160;1283;1047314;-30
2024/01/25 09:59:54;;;;;;;8.30;1.70;;;;;;;-128.00;-1.00;-1.00;100190;1283;1003392;-31
2024/01/25 10:02:20;;;;;;;14.90;1.90;;;;;;;-128.00;-1.00;-1.00;100169;1285;1004492;-33
2024/01/25 10:04:50;;;;;;;7.70;1.90;;;;;;;-128.00;-1.00;-1.00;100103;1285;1004583;-33
2024/01/25 10:07:16;;;;;;;8.40;1.80;;;;;;;-128.00;-1.00;-1.00;100134;1283;1014662;-32
2024/01/25 10:09:45;;;;;;;12.50;2.50;;;;;;;-128.00;-1.00;-1.00;100036;1283;1004975;-32
2024/01/25 10:12:10;;;;;;;12.20;1.90;;;;;;;-128.00;-1.00;-1.00;100109;1282;1060490;-32
2024/01/25 10:14:36;;;;;;;9.70;1.60;;;;;;;-128.00;-1.00;-1.00;100010;1283;1004557;-32
2024/01/25 10:17:02;;;;;;;9.20;1.70;;;;;;;-128.00;-1.00;-1.00;100020;1282;1014992;-31
2024/01/25 10:19:28;;;;;;;12.40;1.40;;;;;;;-128.00;-1.00;-1.00;100191;1282;1004458;-31
2024/01/25 10:21:53;;;;;;;16.20;2.20;;;;;;;-128.00;-1.00;-1.00;100133;1282;1004913;-33
2024/01/25 10:24:19;;;;;;;11.00;3.10;;;;;;;-128.00;-1.00;-1.00;100202;1282;1005007;-31
2024/01/25 10:26:45;;;;;;;11.90;1.60;;;;;;;-128.00;-1.00;-1.00;100207;1282;1059525;-33
2024/01/25 10:29:10;;;;;;;11.30;2.10;;;;;;;-128.00;-1.00;-1.00;100177;1283;1005339;-31
2024/01/25 10:31:38;;;;;;;9.10;1.60;;;;;;;-128.00;-1.00;-1.00;100138;1283;1047172;-32
2024/01/25 10:34:03;;;;;;;7.40;1.60;;;;;;;-128.00;-1.00;-1.00;100130;1283;1004484;-32
2024/01/25 10:36:30;;;;;;;12.10;2.10;;;;;;;-128.00;-1.00;-1.00;100130;1285;1005271;-31
2024/01/25 10:38:56;;;;;;;11.00;1.50;;;;;;;-128.00;-1.00;-1.00;100094;1282;1013647;-32
2024/01/25 10:41:22;;;;;;;10.60;2.00;;;;;;;-128.00;-1.00;-1.00;100168;1282;1004178;-30
2024/01/25 10:43:48;;;;;;;11.30;2.40;;;;;;;-128.00;-1.00;-1.00;100268;1283;1004387;-31
2024/01/25 10:46:14;;;;;;;13.30;3.10;;;;;;;-128.00;-1.00;-1.00;100244;1282;1056253;-31
2024/01/25 10:48:40;;;;;;;10.80;1.50;;;;;;;-128.00;-1.00;-1.00;100110;1283;1004659;-33
2024/01/25 10:51:05;;;;;;;13.30;2.50;;;;;;;-128.00;-1.00;-1.00;100143;1282;1004225;-31
2024/01/25 10:53:32;;;;;;;15.90;2.60;;;;;;;-128.00;-1.00;-1.00;100163;1283;1004447;-31
2024/01/25 10:55:58;;;;;;;11.80;2.10;;;;;;;-128.00;-1.00;-1.00;100207;1283;1004487;-32
2024/01/25 10:58:24;;;;;;;8.10;2.10;;;;;;;-128.00;-1.00;-1.00;100175;1283;1003892;-31
2024/01/25 11:00:56;;;;;;;12.00;2.30;;;;;;;-128.00;-1.00;-1.00;100158;1282;1004699;-31
2024/01/25 11:03:28;;;;;;;11.20;1.90;;;;;;;-128.00;-1.00;-1.00;100077;1286;1045636;-30
2024/01/25 11:06:08;;;;;;;14.20;1.80;;;;;;;-128.00;-1.00;-1.00;100128;1283;1046682;-30
2024/01/25 11:08:34;;;;;;;16.90;4.60;;;;;;;-128.00;-1.00;-1.00;100202;1282;1060832;-32
2024/01/25 11:11:00;;;;;;;16.80;2.30;;;;;;;-128.00;-1.00;-1.00;100158;1282;1004359;-31
2024/01/25 11:13:29;;;;;;;15.60;4.50;;;;;;;-128.00;-1.00;-1.00;100133;1281;1004219;-32
2024/01/25 11:15:55;;;;;;;15.90;3.50;;;;;;;-128.00;-1.00;-1.00;100122;1285;1045416;-32
2024/01/25 11:18:24;;;;;;;7.90;1.20;;;;;;;-128.00;-1.00;-1.00;100164;1283;1004245;-31
2024/01/25 11:20:50;;;;;;;14.40;1.90;;;;;;;-128.00;-1.00;-1.00;100196;1282;1056901;-32
2024/01/25 11:23:16;;;;;;;16.90;2.30;;;;;;;-128.00;-1.00;-1.00;100094;1283;1004890;-31
2024/01/25 11:25:45;;;;;;;15.80;3.80;;;;;;;-128.00;-1.00;-1.00;100171;1282;1005277;-31
2024/01/25 11:28:10;;;;;;;14.30;2.30;;;;;;;-128.00;-1.00;-1.00;100154;1283;1046567;-31
2024/01/25 11:30:36;;;;;;;13.90;2.00;;;;;;;-128.00;-1.00;-1.00;100117;1282;1004720;-33
2024/01/25 11:33:07;;;;;;;8.70;2.00;;;;;;;-128.00;-1.00;-1.00;100157;1282;1004934;-31
2024/01/25 11:35:33;;;;;;;15.40;3.20;;;;;;;-128.00;-1.00;-1.00;100196;1283;1014764;-32
2024/01/25 11:37:59;;;;;;;;;;;;;;;-128.00;-1.00;-1.00;100179;1281;1003623;-33
2024/01/25 11:40:25;;;;;;;14.20;3.20;;;;;;;-128.00;-1.00;-1.00;100140;1281;1004518;-31
2024/01/25 11:42:51;;;;;;;16.90;4.60;;;;;;;-128.00;-1.00;-1.00;100162;1283;1005088;-32
2024/01/25 11:45:17;;;;;;;17.40;5.00;;;;;;;-128.00;-1.00;-1.00;100065;1283;1004639;-31
2024/01/25 11:47:43;;;;;;;17.60;4.90;;;;;;;-128.00;-1.00;-1.00;99993;1283;1014154;-31
2024/01/25 11:50:10;;;;;;;23.60;6.10;;;;;;;-128.00;-1.00;-1.00;100106;1283;1004218;-31
2024/01/25 11:52:36;;;;;;;14.30;4.30;;;;;;;-128.00;-1.00;-1.00;100102;1283;1004446;-32
2024/01/25 11:55:06;;;;;;;;;;;;;;;-128.00;-1.00;-1.00;100181;1282;1004454;-30
2024/01/25 11:57:34;;;;;;;12.80;2.00;;;;;;;-128.00;-1.00;-1.00;100162;1285;1056315;-32
2024/01/25 11:59:59;;;;;;;5.10;1.10;;;;;;;-128.00;-1.00;-1.00;100172;1282;1005165;-32